• Join FlightAware (Why Join?)
  • Login
  • US Flag 
10:15AM EDT


 

Airport Tracker/Info


-or-


 

Live Flight TrackerFlight Track Log ✈ ELJ613 ✈ 14-May-2013 ✈ KROA - KLUK

Flight Track Log - Related Links

Times and Time Zones

All times are in EDT time to prevent confusion due to time zone crossing. See the ELJ613 flight status page for this flight to view local times or setup timezone preferences in your user account.

Time Position Orientation Groundspeed Altitude Reporting Facility
EDT Latitude Longitude Course Direction KTS MPH feet Rate Location/Type
03:04PM 37.3033 -80.0097 293° West 188 216 3,000  Level Washington Center
03:05PM 37.2861 -80.0792 253° West 234 269 5,800 3,480 Climbing Washington Center
03:06PM 37.3192 -80.1439 303° West 223 257 9,900 3,480 Climbing Washington Center
03:07PM 37.3503 -80.2058 302° West 211 243 12,800 2,580 Climbing Washington Center
03:08PM 37.3772 -80.2622 301° West 211 243 15,200 2,220 Climbing Washington Center
03:09PM 37.4081 -80.3269 301° West 211 243 17,300 1,800 Climbing Washington Center
03:10PM 37.4651 -80.3452 293° West  Level FlightAware Approximate
03:10PM 37.4389 -80.3942 300° West 211 243 18,800  Level Washington Center
03:11PM 37.4694 -80.4617 300° West 216 249 20,500 1,740 Climbing Washington Center
03:14PM 37.5617 -80.6467 302° West 257 296 24,900 1,800 Climbing Indianapolis Center
03:15PM 37.5969 -80.7225 300° West 257 296 26,700 1,680 Climbing Indianapolis Center
03:16PM 37.6306 -80.7969 300° West 253 291 28,500 1,560 Climbing Indianapolis Center
03:17PM 37.6697 -80.8833 300° West 246 283 30,000 720 Climbing Indianapolis Center
03:18PM 37.7075 -80.9639 301° West 266 306 30,000  Level Indianapolis Center
03:19PM 37.7492 -81.0536 300° West 295 339 30,000  Level Indianapolis Center
03:20PM 37.7964 -81.1653 298° West 308 354 30,000  Level Indianapolis Center
03:21PM 37.8258 -81.2642 291° West 320 368 30,000  Level Indianapolis Center
03:22PM 37.8583 -81.3708 291° West 322 371 30,000 -540 Level Indianapolis Center
03:23PM 37.8911 -81.4756 292° West 321 369 29,000 -1,020 Descending Indianapolis Center
03:24PM 37.9233 -81.5792 292° West 317 365 28,000 -540 Descending Indianapolis Center
03:25PM 37.9603 -81.7022 291° West 311 358 28,000  Level Indianapolis Center
03:26PM 37.9919 -81.8031 292° West 307 353 28,000  Level Indianapolis Center
03:27PM 38.0222 -81.9044 291° West 307 353 28,000  Level Indianapolis Center
03:28PM 38.0544 -82.0097 291° West 317 365 28,000  Level Indianapolis Center
03:29PM 38.0847 -82.1122 291° West 311 358 28,000 -720 Level Indianapolis Center
03:30PM 38.1172 -82.2175 291° West 319 367 26,600 -1,440 Descending Indianapolis Center
03:31PM 38.1500 -82.3289 291° West 332 382 25,100 -1,680 Descending Indianapolis Center
03:32PM 38.1903 -82.4594 291° West 331 381 23,200 -1,020 Descending Indianapolis Center
03:33PM 38.2228 -82.5661 291° West 324 373 23,000 -120 Descending Indianapolis Center
03:34PM 38.2539 -82.6686 291° West 318 366 23,000  Level Indianapolis Center
03:35PM 38.2808 -82.7706 289° West 307 353 23,000  Level Indianapolis Center
03:36PM 38.3111 -82.8722 291° West 307 353 23,000  Level Indianapolis Center
03:37PM 38.3464 -82.9922 291° West 310 357 23,000  Level Indianapolis Center
03:39PM 38.3769 -83.0972 290° West 316 364 23,000 -540 Level Indianapolis Center
03:40PM 38.4078 -83.2036 290° West 319 367 21,900 -1,380 Descending Indianapolis Center
03:41PM 38.4397 -83.3139 290° West 329 379 20,200 -1,680 Descending Indianapolis Center
03:42PM 38.4697 -83.4181 290° West 317 365 18,500 -1,800 Descending Indianapolis Center
03:43PM 38.5031 -83.5336 290° West 300 345 16,600 -1,800 Descending Indianapolis Center
03:44PM 38.5303 -83.6308 290° West 294 338 14,900 -1,680 Descending Indianapolis Center
03:45PM 38.5575 -83.7250 290° West 284 327 13,200 -1,380 Descending Indianapolis Center
03:46PM 38.5831 -83.8169 290° West 275 316 12,100 -540 Descending Indianapolis Center
03:47PM 38.6097 -83.9056 291° West 269 310 12,100 -60 Level Indianapolis Center
03:48PM 38.6689 -83.9828 314° West 274 315 12,000 -300 Descending Indianapolis Center
03:49PM 38.7342 -84.0283 331° Northwest 267 307 11,500 -1,020 Descending Indianapolis Center
03:50PM 38.8028 -84.0586 341° North 262 302 10,000 -1,500 Descending Indianapolis Center
03:51PM 38.8728 -84.0897 341° North 261 300 8,400 -1,500 Descending Indianapolis Center
03:52PM 38.9414 -84.1214 340° North 261 300 6,900 -1,500 Descending Indianapolis Center
03:53PM 39.0075 -84.1517 340° North 253 291 5,400 -1,440 Descending Indianapolis Center
03:54PM 39.0569 -84.2114 317° Northwest 248 285 4,000 -1,140 Descending Indianapolis Center
03:55PM 39.1033 -84.2789 312° West 236 272 3,100 -780 Descending Indianapolis Center
03:57PM 39.1500 -84.3667 304° West 156 180 1,600 -720 Descending Cincinnati TRACON
03:58PM 39.1333 -84.4000 237° Southwest 115 132 1,100 -600 Descending Cincinnati TRACON
04:00PM 39.1000 -84.4167 322° Northwest  Level FlightAware Approximate